createdAt,value
2022-10-20T00:02:20.813Z,99022.53
2022-10-20T00:05:26.397Z,99021.94
2022-10-20T00:08:32.079Z,99015.38
2022-10-20T00:11:40.427Z,99016.03
2022-10-20T00:14:46.001Z,99023.03
2022-10-20T00:17:54.710Z,99012.47
2022-10-20T00:21:00.479Z,99009.81
2022-10-20T00:24:07.344Z,99016.78
2022-10-20T00:27:15.483Z,99014.91
2022-10-20T00:30:22.548Z,99017.53
2022-10-20T00:33:30.886Z,99019.22
2022-10-20T00:36:36.437Z,99013.22
2022-10-20T00:39:42.276Z,99017.09
2022-10-20T00:42:56.732Z,99007.03
2022-10-20T00:46:02.373Z,99011.84
2022-10-20T00:49:19.088Z,99013.31
2022-10-20T00:52:26.318Z,99008.16
2022-10-20T00:55:37.139Z,99005.41
2022-10-20T00:58:46.863Z,99002.50
2022-10-20T01:01:53.446Z,99004.66
2022-10-20T01:04:59.120Z,98999.75
2022-10-20T01:08:04.679Z,99003.25
2022-10-20T01:11:28.887Z,99000.72
2022-10-20T01:14:55.600Z,98998.34
2022-10-20T01:18:15.370Z,98998.59
2022-10-20T01:21:52.123Z,98995.13
2022-10-20T01:25:20.873Z,98999.81
2022-10-20T01:28:41.929Z,98997.69
2022-10-20T01:31:59.970Z,99000.69
2022-10-20T01:35:18.237Z,99004.28
2022-10-20T01:38:38.117Z,98998.41
2022-10-20T01:41:54.213Z,99004.91
2022-10-20T01:45:08.622Z,98997.25
2022-10-20T01:48:19.670Z,99001.41
2022-10-20T01:51:25.253Z,99002.16
2022-10-20T01:54:33.496Z,99010.19
2022-10-20T01:58:06.205Z,99002.88
2022-10-20T02:01:28.639Z,99005.41
2022-10-20T02:05:01.112Z,99008.41
2022-10-20T02:08:19.598Z,99002.44
2022-10-20T02:11:36.001Z,99005.06
2022-10-20T02:14:44.052Z,98995.19
2022-10-20T02:18:03.429Z,98996.28
2022-10-20T02:21:11.318Z,98996.28
2022-10-20T02:24:21.589Z,98994.50
2022-10-20T02:27:37.047Z,98993.31
2022-10-20T02:30:48.683Z,98994.25
2022-10-20T02:34:00.484Z,98997.72
2022-10-20T02:37:06.225Z,99002.31
2022-10-20T02:40:13.773Z,99008.53
2022-10-20T02:43:21.904Z,99004.34
2022-10-20T02:46:27.685Z,99004.47
2022-10-20T02:49:35.876Z,99007.56
2022-10-20T02:52:50.103Z,99009.25
2022-10-20T02:55:55.700Z,99021.81
2022-10-20T02:59:01.398Z,99015.13
2022-10-20T03:02:07.510Z,99014.41
2022-10-20T03:05:15.798Z,99021.81
2022-10-20T03:08:21.450Z,99023.97
2022-10-20T03:11:27.616Z,99029.81
2022-10-20T03:14:33.288Z,99028.25
2022-10-20T03:17:39.141Z,99022.41
2022-10-20T03:20:48.821Z,99024.19
2022-10-20T03:23:54.558Z,99022.63
2022-10-20T03:27:00.070Z,99039.03
2022-10-20T03:30:05.830Z,99039.78
2022-10-20T03:33:12.299Z,99040.25
2022-10-20T03:36:20.572Z,99042.03
2022-10-20T03:39:26.275Z,99042.88
2022-10-20T03:42:34.103Z,99036.25
2022-10-20T03:45:39.914Z,99038.53
2022-10-20T03:48:45.725Z,99027.66
2022-10-20T03:51:54.745Z,99031.13
2022-10-20T03:55:00.237Z,99022.47
2022-10-20T03:58:05.796Z,99018.63
2022-10-20T04:01:18.943Z,99019.81
2022-10-20T04:04:24.605Z,99024.50
2022-10-20T04:07:32.797Z,99010.94
2022-10-20T04:10:38.402Z,99021.38
2022-10-20T04:13:43.985Z,99012.72
2022-10-20T04:16:57.435Z,99015.47
2022-10-20T04:20:15.394Z,99002.44
2022-10-20T04:23:24.719Z,99012.50
2022-10-20T04:26:30.348Z,99006.16
2022-10-20T04:29:36.109Z,99008.78
2022-10-20T04:32:41.912Z,99001.72
2022-10-20T04:35:47.520Z,99013.47
2022-10-20T04:38:55.788Z,99014.41
2022-10-20T04:42:01.326Z,99020.06
2022-10-20T04:45:07.604Z,99016.59
2022-10-20T04:48:19.216Z,99013.09
2022-10-20T04:51:24.835Z,99004.69
2022-10-20T04:54:33.671Z,99006.72
2022-10-20T04:57:39.598Z,99013.78
2022-10-20T05:00:45.228Z,99009.25
2022-10-20T05:03:51.188Z,99007.56
2022-10-20T05:06:56.806Z,99016.09
2022-10-20T05:10:18.007Z,99009.47
2022-10-20T05:13:24.526Z,99009.38
2022-10-20T05:16:30.922Z,99006.84
2022-10-20T05:19:36.503Z,99008.25
2022-10-20T05:22:42.036Z,99013.31
2022-10-20T05:25:52.914Z,99012.06
2022-10-20T05:28:58.931Z,99009.66
2022-10-20T05:32:04.465Z,98999.59
2022-10-20T05:35:11.484Z,99013.88
2022-10-20T05:38:17.066Z,99016.66
2022-10-20T05:41:28.580Z,99021.56
2022-10-20T05:44:34.201Z,99025.94
2022-10-20T05:47:39.858Z,99022.72
2022-10-20T05:50:47.788Z,99027.78
2022-10-20T05:53:54.149Z,99040.84
2022-10-20T05:57:02.373Z,99045.69
2022-10-20T06:00:12.825Z,99038.97
2022-10-20T06:03:20.274Z,99039.09
2022-10-20T06:06:31.558Z,99045.09
2022-10-20T06:09:37.078Z,99041.41
2022-10-20T06:12:45.297Z,99047.50
2022-10-20T06:15:50.844Z,99041.72
2022-10-20T06:18:57.089Z,99054.69
2022-10-20T06:22:05.885Z,99057.47
2022-10-20T06:25:12.815Z,99051.81
2022-10-20T06:28:21.335Z,99061.16
2022-10-20T06:31:31.207Z,99058.13
2022-10-20T06:34:42.993Z,99051.59
2022-10-20T06:37:53.961Z,99054.31
2022-10-20T06:40:59.577Z,99062.47
2022-10-20T06:44:28.085Z,99060.34
2022-10-20T06:47:33.775Z,99061.44
2022-10-20T06:50:39.392Z,99061.38
2022-10-20T06:53:46.936Z,99065.75
2022-10-20T06:56:52.617Z,99065.22
2022-10-20T07:00:02.926Z,99060.47
2022-10-20T07:03:08.477Z,99065.00
2022-10-20T07:06:19.117Z,99062.53
2022-10-20T07:09:24.750Z,99066.41
2022-10-20T07:12:30.457Z,99061.28
2022-10-20T07:15:38.658Z,99073.94
2022-10-20T07:22:10.475Z,99074.13
2022-10-20T07:25:16.139Z,99064.03
2022-10-20T07:28:22.034Z,99069.16
2022-10-20T07:31:35.749Z,99065.44
2022-10-20T07:34:41.341Z,99061.38
2022-10-20T07:37:46.883Z,99058.22
2022-10-20T07:40:52.787Z,99063.44
2022-10-20T07:44:00.311Z,99058.78
2022-10-20T07:47:08.484Z,99048.16
2022-10-20T07:50:14.782Z,99044.97
2022-10-20T07:53:20.549Z,99049.63
2022-10-20T07:56:26.672Z,99046.84
2022-10-20T07:59:32.378Z,99051.13
2022-10-20T08:02:41.044Z,99051.41
2022-10-20T08:05:46.687Z,99051.34
2022-10-20T08:08:52.407Z,99053.09
2022-10-20T08:11:58.086Z,99050.44
2022-10-20T08:15:03.697Z,99046.13
2022-10-20T08:18:11.988Z,99050.06
2022-10-20T08:21:22.898Z,99049.47
2022-10-20T08:24:28.590Z,99055.00
2022-10-20T08:27:34.338Z,99043.09
2022-10-20T08:30:41.351Z,99045.09
2022-10-20T08:33:52.570Z,99038.44
2022-10-20T08:36:58.884Z,99040.44
2022-10-20T08:40:04.545Z,99034.00
2022-10-20T08:43:19.067Z,99029.63
2022-10-20T08:46:33.559Z,99036.41
2022-10-20T08:49:41.842Z,99036.81
2022-10-20T08:52:50.303Z,99033.66
2022-10-20T08:55:59.259Z,99032.06
2022-10-20T08:59:06.254Z,99020.97
2022-10-20T09:02:19.998Z,99030.06
2022-10-20T09:05:40.599Z,99024.16
2022-10-20T09:08:47.686Z,99023.88
2022-10-20T09:11:55.397Z,99018.19
2022-10-20T09:15:01.017Z,99023.84
2022-10-20T09:18:14.009Z,99023.47
2022-10-20T09:21:25.841Z,99030.34
2022-10-20T09:24:34.721Z,99026.72
2022-10-20T09:27:43.148Z,99026.16
2022-10-20T09:30:48.759Z,99027.28
2022-10-20T09:33:54.542Z,99015.28
2022-10-20T09:37:16.230Z,99015.13
2022-10-20T09:40:22.938Z,99016.56
2022-10-20T09:43:31.151Z,99017.84
2022-10-20T09:46:48.873Z,99015.22
2022-10-20T09:50:03.850Z,99011.25
2022-10-20T09:53:38.230Z,98999.00
2022-10-20T09:56:48.142Z,99001.31
2022-10-20T10:00:01.425Z,99007.19
2022-10-20T10:03:24.967Z,99002.88
2022-10-20T10:06:42.344Z,99003.59
2022-10-20T10:10:08.269Z,99010.38
2022-10-20T10:13:28.356Z,99002.78
2022-10-20T10:16:45.757Z,98996.16
2022-10-20T10:19:55.448Z,98989.13
2022-10-20T10:23:23.559Z,98991.53
2022-10-20T10:27:05.245Z,98991.66
2022-10-20T10:30:32.255Z,98995.66
2022-10-20T10:33:38.491Z,98983.50
2022-10-20T10:36:44.833Z,98980.19
2022-10-20T10:39:51.302Z,98977.94
2022-10-20T10:43:30.032Z,98970.84
2022-10-20T10:46:45.489Z,98974.06
2022-10-20T10:50:14.930Z,98980.41
2022-10-20T10:53:42.905Z,98972.09
2022-10-20T10:56:54.507Z,98964.91
2022-10-20T11:00:12.893Z,98974.34
2022-10-20T11:03:51.214Z,98965.53
2022-10-20T11:07:11.422Z,98957.66
2022-10-20T11:10:38.092Z,98944.09
2022-10-20T11:14:06.442Z,98947.09
2022-10-20T11:17:45.775Z,98938.34
2022-10-20T11:21:16.158Z,98922.59
2022-10-20T11:24:51.130Z,98921.28
2022-10-20T11:28:01.112Z,98915.00
2022-10-20T11:31:08.892Z,98918.16
2022-10-20T11:34:29.705Z,98903.34
2022-10-20T11:37:47.974Z,98899.63
2022-10-20T11:41:03.808Z,98898.94
2022-10-20T11:44:18.477Z,98889.13
2022-10-20T11:47:36.647Z,98876.34
2022-10-20T11:50:56.507Z,98890.50
2022-10-20T11:54:30.648Z,98879.16
2022-10-20T11:58:08.210Z,98872.31
2022-10-20T12:01:34.974Z,98870.53
2022-10-20T12:05:18.584Z,98863.75
2022-10-20T12:09:11.237Z,98864.19
2022-10-20T12:12:28.086Z,98857.09
2022-10-20T12:15:34.397Z,98858.66
2022-10-20T12:18:40.665Z,98851.94
2022-10-20T12:22:06.772Z,98847.34
2022-10-20T12:25:40.389Z,98842.06
2022-10-20T12:28:45.951Z,98843.59
2022-10-20T12:32:48.433Z,98842.41
2022-10-20T12:36:25.700Z,98833.91
2022-10-20T12:39:33.370Z,98832.28
2022-10-20T12:42:51.034Z,98819.66
2022-10-20T12:46:14.762Z,98826.75
2022-10-20T12:49:32.726Z,98824.25
2022-10-20T12:52:43.245Z,98824.44
2022-10-20T12:56:00.669Z,98827.84
2022-10-20T12:59:44.852Z,98822.06
2022-10-20T13:02:54.011Z,98814.88
2022-10-20T13:05:59.934Z,98814.69
2022-10-20T13:09:27.558Z,98812.16
2022-10-20T13:12:43.479Z,98810.53
2022-10-20T13:15:57.489Z,98806.00
2022-10-20T13:19:09.336Z,98808.59
2022-10-20T13:22:44.637Z,98800.50
2022-10-20T13:25:54.322Z,98796.47
2022-10-20T13:29:08.516Z,98801.47
2022-10-20T13:32:35.141Z,98800.16
2022-10-20T13:35:56.255Z,98801.00
2022-10-20T13:39:17.423Z,98792.13
2022-10-20T13:42:44.752Z,98793.47
2022-10-20T13:46:40.362Z,98784.50
2022-10-20T13:53:48.558Z,98795.97
2022-10-20T13:56:55.085Z,98792.09
2022-10-20T14:00:08.214Z,98783.09
2022-10-20T14:03:21.137Z,98788.31
2022-10-20T14:06:39.091Z,98787.34
2022-10-20T14:09:49.369Z,98786.03
2022-10-20T14:12:59.592Z,98784.56
2022-10-20T14:16:19.589Z,98791.88
2022-10-20T14:19:28.333Z,98781.06
2022-10-20T14:22:41.096Z,98776.72
2022-10-20T14:25:49.037Z,98775.22
2022-10-20T14:28:58.030Z,98775.03
2022-10-20T14:32:04.834Z,98774.34
2022-10-20T14:35:28.926Z,98779.38
2022-10-20T14:38:40.096Z,98769.59
2022-10-20T14:41:49.754Z,98770.41
2022-10-20T14:44:59.202Z,98762.59
2022-10-20T14:48:09.584Z,98757.47
2022-10-20T14:51:39.895Z,98765.13
2022-10-20T14:55:00.110Z,98768.63
2022-10-20T14:58:41.041Z,98754.16
2022-10-20T15:02:08.965Z,98765.16
2022-10-20T15:05:40.560Z,98755.81
2022-10-20T15:08:58.049Z,98753.63
2022-10-20T15:12:18.587Z,98752.09
2022-10-20T15:15:29.220Z,98734.47
2022-10-20T15:18:39.282Z,98743.78
2022-10-20T15:21:45.638Z,98742.41
2022-10-20T15:24:51.510Z,98735.09
2022-10-20T15:28:03.376Z,98726.75
2022-10-20T15:31:21.680Z,98723.75
2022-10-20T15:34:27.354Z,98728.53
2022-10-20T15:37:34.715Z,98726.19
2022-10-20T15:40:40.295Z,98725.00
2022-10-20T15:43:48.565Z,98718.69
2022-10-20T15:46:56.572Z,98723.09
2022-10-20T15:50:08.248Z,98715.91
2022-10-20T15:53:17.926Z,98714.88
2022-10-20T15:56:24.214Z,98715.78
2022-10-20T15:59:32.433Z,98713.44
2022-10-20T16:02:38.171Z,98715.28
2022-10-20T16:05:44.078Z,98711.44
2022-10-20T16:08:53.464Z,98712.63
2022-10-20T16:11:59.221Z,98705.28
2022-10-20T16:15:10.241Z,98703.78
2022-10-20T16:18:17.054Z,98698.34
2022-10-20T16:21:22.670Z,98710.25
2022-10-20T16:24:28.288Z,98712.22
2022-10-20T16:27:38.060Z,98710.63
2022-10-20T16:30:46.466Z,98706.69
2022-10-20T16:33:51.990Z,98714.97
2022-10-20T16:37:07.063Z,98712.06
2022-10-20T16:40:13.818Z,98719.25
2022-10-20T16:43:19.422Z,98712.72
2022-10-20T16:46:27.662Z,98716.06
2022-10-20T16:49:33.414Z,98726.91
2022-10-20T16:52:39.032Z,98718.09
2022-10-20T16:55:55.668Z,98721.16
2022-10-20T16:59:02.058Z,98719.53
2022-10-20T17:02:10.528Z,98726.41
2022-10-20T17:05:16.727Z,98720.28
2022-10-20T17:08:31.892Z,98720.63
2022-10-20T17:11:40.456Z,98723.09
2022-10-20T17:14:46.042Z,98721.09
2022-10-20T17:17:54.212Z,98717.31
2022-10-20T17:20:59.935Z,98728.06
2022-10-20T17:24:22.527Z,98721.16
2022-10-20T17:27:29.180Z,98720.44
2022-10-20T17:30:36.205Z,98725.63
2022-10-20T17:33:45.100Z,98733.06
2022-10-20T17:36:55.629Z,98721.22
2022-10-20T17:40:01.215Z,98717.16
2022-10-20T17:43:29.215Z,98712.03
2022-10-20T17:46:35.200Z,98701.59
2022-10-20T17:49:43.911Z,98710.25
2022-10-20T17:52:49.400Z,98699.13
2022-10-20T17:55:54.993Z,98700.09
2022-10-20T17:59:03.178Z,98707.47
2022-10-20T18:02:08.990Z,98702.47
2022-10-20T18:05:18.026Z,98701.34
2022-10-20T18:08:23.763Z,98703.47
2022-10-20T18:11:33.845Z,98701.66
2022-10-20T18:14:39.538Z,98687.47
2022-10-20T18:17:45.136Z,98685.81
2022-10-20T18:21:00.638Z,98691.94
2022-10-20T18:24:10.263Z,98697.78
2022-10-20T18:27:15.909Z,98686.38
2022-10-20T18:30:21.667Z,98692.50
2022-10-20T18:33:27.245Z,98696.97
2022-10-20T18:36:39.103Z,98701.00
2022-10-20T18:39:47.944Z,98685.41
2022-10-20T18:42:53.513Z,98682.88
2022-10-20T18:45:59.156Z,98667.00
2022-10-20T18:49:08.108Z,98672.56
2022-10-20T18:52:16.245Z,98684.69
2022-10-20T18:55:21.802Z,98680.53
2022-10-20T18:58:28.163Z,98691.03
2022-10-20T19:01:37.918Z,98683.13
2022-10-20T19:04:43.718Z,98680.72
2022-10-20T19:07:51.976Z,98690.19
2022-10-20T19:10:58.406Z,98686.50
2022-10-20T19:14:04.846Z,98663.97
2022-10-20T19:17:10.392Z,98670.94
2022-10-20T19:20:16.202Z,98669.78
2022-10-20T19:23:24.646Z,98678.06
2022-10-20T19:26:33.482Z,98675.06
2022-10-20T19:29:39.346Z,98678.16
2022-10-20T19:32:45.134Z,98679.22
2022-10-20T19:35:52.442Z,98669.34
2022-10-20T19:39:03.974Z,98658.31
2022-10-20T19:42:13.896Z,98649.28
2022-10-20T19:45:19.752Z,98654.56
2022-10-20T19:48:26.798Z,98647.38
2022-10-20T19:51:33.448Z,98652.03
2022-10-20T19:54:42.090Z,98648.69
2022-10-20T19:57:48.152Z,98642.03
2022-10-20T20:00:59.776Z,98642.41
2022-10-20T20:04:06.904Z,98634.03
2022-10-20T20:07:13.057Z,98634.63
2022-10-20T20:10:21.614Z,98634.88
2022-10-20T20:13:29.503Z,98637.28
2022-10-20T20:16:35.538Z,98642.72
2022-10-20T20:19:41.360Z,98638.47
2022-10-20T20:22:47.478Z,98634.22
2022-10-20T20:29:03.335Z,98635.06
2022-10-20T20:32:09.598Z,98638.38
2022-10-20T20:35:15.478Z,98636.53
2022-10-20T20:38:21.193Z,98642.78
2022-10-20T20:41:31.988Z,98628.53
2022-10-20T20:44:37.689Z,98627.66
2022-10-20T20:47:46.792Z,98623.78
2022-10-20T20:50:56.368Z,98625.59
2022-10-20T20:54:02.226Z,98629.56
2022-10-20T20:57:10.387Z,98621.81
2022-10-20T21:00:17.422Z,98632.09
2022-10-20T21:03:23.330Z,98614.50
2022-10-20T21:06:56.627Z,98620.22
2022-10-20T21:09:56.620Z,98606.88
2022-10-20T21:13:04.920Z,98610.25
2022-10-20T21:16:13.629Z,98607.25
2022-10-20T21:19:20.352Z,98604.34
2022-10-20T21:22:28.746Z,98607.59
2022-10-20T21:25:34.297Z,98605.69
2022-10-20T21:28:43.832Z,98604.16
2022-10-20T21:31:49.779Z,98598.41
2022-10-20T21:34:55.466Z,98596.03
2022-10-20T21:38:01.058Z,98581.78
2022-10-20T21:41:08.605Z,98588.63
2022-10-20T21:44:17.835Z,98592.00
2022-10-20T21:47:23.466Z,98592.97
2022-10-20T21:50:28.944Z,98600.16
2022-10-20T21:53:34.448Z,98597.53
2022-10-20T21:56:44.452Z,98598.38
2022-10-20T21:59:52.704Z,98605.31
2022-10-20T22:02:58.274Z,98605.44
2022-10-20T22:06:06.249Z,98598.50
2022-10-20T22:09:15.815Z,98584.84
2022-10-20T22:12:21.510Z,98590.72
2022-10-20T22:15:29.755Z,98590.47
2022-10-20T22:18:35.416Z,98592.63
2022-10-20T22:21:43.200Z,98583.06
2022-10-20T22:24:48.769Z,98573.22
2022-10-20T22:27:54.405Z,98576.59
2022-10-20T22:31:02.856Z,98566.41
2022-10-20T22:34:09.598Z,98572.53
2022-10-20T22:37:15.119Z,98582.94
2022-10-20T22:40:20.688Z,98584.28
2022-10-20T22:43:26.190Z,98575.44
2022-10-20T22:46:34.407Z,98580.81
2022-10-20T22:49:39.993Z,98578.75
2022-10-20T22:52:46.082Z,98566.22
2022-10-20T22:55:51.636Z,98569.94
2022-10-20T22:58:57.615Z,98576.38
2022-10-20T23:02:05.818Z,98574.00
2022-10-20T23:05:12.272Z,98558.06
2022-10-20T23:08:17.985Z,98555.44
2022-10-20T23:11:24.688Z,98553.91
2022-10-20T23:14:30.280Z,98554.03
2022-10-20T23:17:38.760Z,98544.59
2022-10-20T23:20:44.542Z,98535.50
2022-10-20T23:23:50.057Z,98536.94
2022-10-20T23:26:55.688Z,98536.69
2022-10-20T23:30:01.284Z,98522.44
2022-10-20T23:33:09.463Z,98526.75
2022-10-20T23:36:17.782Z,98521.50
2022-10-20T23:39:23.439Z,98516.97
2022-10-20T23:42:29.062Z,98519.38
2022-10-20T23:45:37.011Z,98518.91
2022-10-20T23:48:46.044Z,98516.50
2022-10-20T23:51:51.639Z,98515.66
2022-10-20T23:54:57.217Z,98510.75
2022-10-20T23:58:02.867Z,98516.84
